sensor_id;sensor_type;location;lat;lon;timestamp;pressure;altitude;pressure_sealevel;temperature;humidity
60267;BME280;46125;61.360;-149.532;2023-05-07T00:00:35;99749.88;;;9.95;41.17
60267;BME280;46125;61.360;-149.532;2023-05-07T00:03:04;99750.14;;;11.47;39.15
60267;BME280;46125;61.360;-149.532;2023-05-07T00:05:32;99749.30;;;11.00;37.65
60267;BME280;46125;61.360;-149.532;2023-05-07T00:08:00;99750.45;;;8.81;42.68
60267;BME280;46125;61.360;-149.532;2023-05-07T00:10:29;99748.06;;;10.15;39.89
60267;BME280;46125;61.360;-149.532;2023-05-07T00:12:57;99754.08;;;9.37;41.94
60267;BME280;46125;61.360;-149.532;2023-05-07T00:15:31;99746.43;;;10.50;40.09
60267;BME280;46125;61.360;-149.532;2023-05-07T00:18:00;99746.27;;;10.89;39.37
60267;BME280;46125;61.360;-149.532;2023-05-07T00:20:29;99745.24;;;11.36;37.43
60267;BME280;46125;61.360;-149.532;2023-05-07T00:22:57;99746.57;;;9.36;41.59
60267;BME280;46125;61.360;-149.532;2023-05-07T00:25:26;99749.83;;;11.98;37.72
60267;BME280;46125;61.360;-149.532;2023-05-07T00:27:54;99749.25;;;11.72;36.67
60267;BME280;46125;61.360;-149.532;2023-05-07T00:30:23;99747.60;;;10.49;38.93
60267;BME280;46125;61.360;-149.532;2023-05-07T00:32:51;99746.56;;;11.76;37.47
60267;BME280;46125;61.360;-149.532;2023-05-07T00:35:20;99752.84;;;8.60;40.54
60267;BME280;46125;61.360;-149.532;2023-05-07T00:37:48;99750.80;;;9.38;42.60
60267;BME280;46125;61.360;-149.532;2023-05-07T00:40:17;99748.11;;;9.34;42.43
60267;BME280;46125;61.360;-149.532;2023-05-07T00:42:45;99749.80;;;8.85;41.21
60267;BME280;46125;61.360;-149.532;2023-05-07T00:45:14;99744.17;;;10.48;40.77
60267;BME280;46125;61.360;-149.532;2023-05-07T00:47:42;99748.45;;;9.77;40.07
60267;BME280;46125;61.360;-149.532;2023-05-07T00:50:11;99750.61;;;9.09;42.87
60267;BME280;46125;61.360;-149.532;2023-05-07T00:52:39;99751.92;;;8.65;41.90
60267;BME280;46125;61.360;-149.532;2023-05-07T00:55:08;99747.84;;;10.45;38.17
60267;BME280;46125;61.360;-149.532;2023-05-07T00:57:39;99749.35;;;9.97;38.39
60267;BME280;46125;61.360;-149.532;2023-05-07T01:00:09;99747.39;;;10.62;38.84
60267;BME280;46125;61.360;-149.532;2023-05-07T01:02:38;99754.03;;;10.92;39.56
60267;BME280;46125;61.360;-149.532;2023-05-07T01:05:09;99751.79;;;9.83;42.17
60267;BME280;46125;61.360;-149.532;2023-05-07T01:07:40;99747.39;;;10.45;38.80
60267;BME280;46125;61.360;-149.532;2023-05-07T01:10:09;99749.59;;;11.23;38.41
60267;BME280;46125;61.360;-149.532;2023-05-07T01:12:39;99758.14;;;8.63;42.53
60267;BME280;46125;61.360;-149.532;2023-05-07T01:15:10;99758.17;;;8.56;43.78
60267;BME280;46125;61.360;-149.532;2023-05-07T01:17:41;99753.61;;;9.75;41.19
60267;BME280;46125;61.360;-149.532;2023-05-07T01:20:15;99755.63;;;10.30;39.34
60267;BME280;46125;61.360;-149.532;2023-05-07T01:22:44;99761.64;;;11.09;39.06
60267;BME280;46125;61.360;-149.532;2023-05-07T01:25:13;99764.20;;;10.04;40.45
60267;BME280;46125;61.360;-149.532;2023-05-07T01:27:41;99761.41;;;10.00;41.71
60267;BME280;46125;61.360;-149.532;2023-05-07T01:30:11;99761.32;;;9.38;40.37
60267;BME280;46125;61.360;-149.532;2023-05-07T01:32:43;99760.05;;;10.15;40.68
60267;BME280;46125;61.360;-149.532;2023-05-07T01:35:18;99764.18;;;9.91;39.57
60267;BME280;46125;61.360;-149.532;2023-05-07T01:37:47;99758.89;;;10.80;39.28
60267;BME280;46125;61.360;-149.532;2023-05-07T01:40:17;99763.74;;;11.11;37.53
60267;BME280;46125;61.360;-149.532;2023-05-07T01:42:51;99760.97;;;10.97;38.43
60267;BME280;46125;61.360;-149.532;2023-05-07T01:45:20;99766.44;;;10.08;40.60
60267;BME280;46125;61.360;-149.532;2023-05-07T01:47:50;99765.01;;;9.70;40.51
60267;BME280;46125;61.360;-149.532;2023-05-07T01:50:20;99764.14;;;11.37;37.99
60267;BME280;46125;61.360;-149.532;2023-05-07T01:52:50;99764.88;;;10.77;38.82
60267;BME280;46125;61.360;-149.532;2023-05-07T01:55:19;99762.39;;;10.15;40.39
60267;BME280;46125;61.360;-149.532;2023-05-07T01:57:48;99762.22;;;10.97;38.84
60267;BME280;46125;61.360;-149.532;2023-05-07T02:00:26;99767.87;;;9.00;43.56
60267;BME280;46125;61.360;-149.532;2023-05-07T02:02:55;99761.64;;;10.01;39.81
60267;BME280;46125;61.360;-149.532;2023-05-07T02:05:24;99764.21;;;11.58;37.43
60267;BME280;46125;61.360;-149.532;2023-05-07T02:07:52;99764.51;;;11.56;38.61
60267;BME280;46125;61.360;-149.532;2023-05-07T02:10:21;99767.02;;;9.80;40.09
60267;BME280;46125;61.360;-149.532;2023-05-07T02:12:49;99770.17;;;9.41;42.50
60267;BME280;46125;61.360;-149.532;2023-05-07T02:15:18;99768.34;;;9.41;42.97
60267;BME280;46125;61.360;-149.532;2023-05-07T02:18:04;99769.11;;;10.34;41.01
60267;BME280;46125;61.360;-149.532;2023-05-07T02:20:33;99766.89;;;9.88;40.29
60267;BME280;46125;61.360;-149.532;2023-05-07T02:23:01;99766.02;;;10.75;39.97
60267;BME280;46125;61.360;-149.532;2023-05-07T02:25:30;99769.16;;;10.44;40.42
60267;BME280;46125;61.360;-149.532;2023-05-07T02:27:58;99775.91;;;9.51;42.04
60267;BME280;46125;61.360;-149.532;2023-05-07T02:30:27;99776.86;;;9.83;39.38
60267;BME280;46125;61.360;-149.532;2023-05-07T02:32:55;99776.60;;;10.04;41.27
60267;BME280;46125;61.360;-149.532;2023-05-07T02:35:25;99780.77;;;10.06;40.40
60267;BME280;46125;61.360;-149.532;2023-05-07T02:37:53;99779.83;;;10.12;40.40
60267;BME280;46125;61.360;-149.532;2023-05-07T02:40:22;99786.97;;;10.24;42.49
60267;BME280;46125;61.360;-149.532;2023-05-07T02:42:50;99787.83;;;9.40;40.80
60267;BME280;46125;61.360;-149.532;2023-05-07T02:45:19;99789.94;;;9.20;45.04
60267;BME280;46125;61.360;-149.532;2023-05-07T02:47:47;99791.05;;;9.20;45.76
60267;BME280;46125;61.360;-149.532;2023-05-07T02:50:16;99788.46;;;10.23;42.80
60267;BME280;46125;61.360;-149.532;2023-05-07T02:52:44;99789.19;;;9.73;44.45
60267;BME280;46125;61.360;-149.532;2023-05-07T02:55:13;99792.26;;;9.66;45.53
60267;BME280;46125;61.360;-149.532;2023-05-07T02:57:41;99796.60;;;8.73;48.70
60267;BME280;46125;61.360;-149.532;2023-05-07T03:00:15;99796.58;;;8.78;49.97
60267;BME280;46125;61.360;-149.532;2023-05-07T03:02:43;99797.70;;;8.26;49.71
60267;BME280;46125;61.360;-149.532;2023-05-07T03:05:12;99795.16;;;7.72;53.13
60267;BME280;46125;61.360;-149.532;2023-05-07T03:07:40;99799.08;;;9.37;49.94
60267;BME280;46125;61.360;-149.532;2023-05-07T03:10:09;99799.88;;;7.60;51.73
60267;BME280;46125;61.360;-149.532;2023-05-07T03:12:38;99800.22;;;8.29;49.48
60267;BME280;46125;61.360;-149.532;2023-05-07T03:15:08;99805.19;;;7.50;55.40
60267;BME280;46125;61.360;-149.532;2023-05-07T03:17:36;99807.86;;;7.33;50.62
60267;BME280;46125;61.360;-149.532;2023-05-07T03:20:06;99808.85;;;7.80;53.19
60267;BME280;46125;61.360;-149.532;2023-05-07T03:22:34;99808.56;;;9.07;48.70
60267;BME280;46125;61.360;-149.532;2023-05-07T03:25:02;99810.37;;;7.42;56.42
60267;BME280;46125;61.360;-149.532;2023-05-07T03:27:31;99813.46;;;7.24;56.42
60267;BME280;46125;61.360;-149.532;2023-05-07T03:29:59;99814.72;;;8.84;52.01
60267;BME280;46125;61.360;-149.532;2023-05-07T03:32:27;99815.47;;;9.19;51.99
60267;BME280;46125;61.360;-149.532;2023-05-07T03:34:56;99816.54;;;8.93;51.05
60267;BME280;46125;61.360;-149.532;2023-05-07T03:37:24;99814.98;;;10.30;49.05
60267;BME280;46125;61.360;-149.532;2023-05-07T03:39:53;99818.21;;;9.42;50.34
60267;BME280;46125;61.360;-149.532;2023-05-07T03:42:21;99821.55;;;9.35;51.23
60267;BME280;46125;61.360;-149.532;2023-05-07T03:44:50;99822.80;;;9.10;51.52
60267;BME280;46125;61.360;-149.532;2023-05-07T03:47:18;99828.82;;;9.53;50.64
60267;BME280;46125;61.360;-149.532;2023-05-07T03:49:47;99829.90;;;9.56;51.56
60267;BME280;46125;61.360;-149.532;2023-05-07T03:52:16;99830.18;;;8.79;52.30
60267;BME280;46125;61.360;-149.532;2023-05-07T03:54:44;99828.10;;;8.44;54.50
60267;BME280;46125;61.360;-149.532;2023-05-07T03:57:14;99829.75;;;9.09;52.39
60267;BME280;46125;61.360;-149.532;2023-05-07T03:59:47;99831.72;;;9.26;52.30
60267;BME280;46125;61.360;-149.532;2023-05-07T04:02:21;99832.68;;;9.02;50.57
60267;BME280;46125;61.360;-149.532;2023-05-07T04:04:50;99831.75;;;9.84;48.58
60267;BME280;46125;61.360;-149.532;2023-05-07T04:07:19;99830.92;;;8.58;53.29
60267;BME280;46125;61.360;-149.532;2023-05-07T04:09:48;99834.22;;;8.03;54.07
60267;BME280;46125;61.360;-149.532;2023-05-07T04:12:23;99835.42;;;8.90;52.95
60267;BME280;46125;61.360;-149.532;2023-05-07T04:14:51;99834.78;;;7.80;53.47
60267;BME280;46125;61.360;-149.532;2023-05-07T04:17:21;99837.33;;;8.93;50.71
60267;BME280;46125;61.360;-149.532;2023-05-07T04:19:50;99840.18;;;9.67;50.54
60267;BME280;46125;61.360;-149.532;2023-05-07T04:22:18;99839.59;;;8.40;50.80
60267;BME280;46125;61.360;-149.532;2023-05-07T04:24:47;99840.97;;;7.94;50.33
60267;BME280;46125;61.360;-149.532;2023-05-07T04:27:17;99841.40;;;9.08;50.39
60267;BME280;46125;61.360;-149.532;2023-05-07T04:29:49;99842.36;;;10.16;47.03
60267;BME280;46125;61.360;-149.532;2023-05-07T04:32:18;99844.20;;;8.30;50.74
60267;BME280;46125;61.360;-149.532;2023-05-07T04:34:47;99843.10;;;9.60;48.82
60267;BME280;46125;61.360;-149.532;2023-05-07T04:37:15;99842.78;;;9.09;49.09
60267;BME280;46125;61.360;-149.532;2023-05-07T04:39:44;99841.72;;;8.57;50.80
60267;BME280;46125;61.360;-149.532;2023-05-07T04:42:15;99843.81;;;8.92;49.06
60267;BME280;46125;61.360;-149.532;2023-05-07T04:44:44;99844.29;;;8.51;48.27
60267;BME280;46125;61.360;-149.532;2023-05-07T04:47:13;99846.01;;;7.84;50.86
60267;BME280;46125;61.360;-149.532;2023-05-07T04:49:41;99847.28;;;8.09;48.57
60267;BME280;46125;61.360;-149.532;2023-05-07T04:52:10;99847.07;;;7.64;49.64
60267;BME280;46125;61.360;-149.532;2023-05-07T04:54:38;99845.50;;;7.80;50.76
60267;BME280;46125;61.360;-149.532;2023-05-07T04:57:07;99845.56;;;7.86;50.34
60267;BME280;46125;61.360;-149.532;2023-05-07T04:59:35;99846.56;;;7.77;51.18
60267;BME280;46125;61.360;-149.532;2023-05-07T05:02:04;99846.63;;;8.07;49.08
60267;BME280;46125;61.360;-149.532;2023-05-07T05:04:32;99845.12;;;8.68;48.74
60267;BME280;46125;61.360;-149.532;2023-05-07T05:07:01;99845.56;;;8.72;46.62
60267;BME280;46125;61.360;-149.532;2023-05-07T05:09:29;99845.15;;;8.95;46.21
60267;BME280;46125;61.360;-149.532;2023-05-07T05:11:58;99844.08;;;8.95;45.63
60267;BME280;46125;61.360;-149.532;2023-05-07T05:14:26;99844.72;;;9.06;45.05
60267;BME280;46125;61.360;-149.532;2023-05-07T05:16:55;99844.05;;;9.23;45.22
60267;BME280;46125;61.360;-149.532;2023-05-07T05:19:23;99846.49;;;9.19;44.92
60267;BME280;46125;61.360;-149.532;2023-05-07T05:21:52;99846.84;;;9.69;44.01
60267;BME280;46125;61.360;-149.532;2023-05-07T05:24:20;99849.12;;;10.00;44.19
60267;BME280;46125;61.360;-149.532;2023-05-07T05:26:49;99849.10;;;10.18;42.21
60267;BME280;46125;61.360;-149.532;2023-05-07T05:29:17;99848.89;;;10.73;41.87
60267;BME280;46125;61.360;-149.532;2023-05-07T05:31:46;99850.42;;;10.74;41.74
60267;BME280;46125;61.360;-149.532;2023-05-07T05:34:20;99850.59;;;11.34;40.64
60267;BME280;46125;61.360;-149.532;2023-05-07T05:36:49;99851.78;;;11.28;40.38
60267;BME280;46125;61.360;-149.532;2023-05-07T05:39:18;99849.96;;;11.42;40.07
60267;BME280;46125;61.360;-149.532;2023-05-07T05:41:46;99849.77;;;11.56;40.06
60267;BME280;46125;61.360;-149.532;2023-05-07T05:44:15;99852.12;;;11.40;39.76
60267;BME280;46125;61.360;-149.532;2023-05-07T05:46:43;99855.60;;;11.04;40.65
60267;BME280;46125;61.360;-149.532;2023-05-07T05:49:12;99856.79;;;11.48;39.91
60267;BME280;46125;61.360;-149.532;2023-05-07T05:51:40;99858.54;;;11.75;40.13
60267;BME280;46125;61.360;-149.532;2023-05-07T05:54:09;99856.20;;;11.72;40.12
60267;BME280;46125;61.360;-149.532;2023-05-07T05:56:37;99858.07;;;11.47;39.65
60267;BME280;46125;61.360;-149.532;2023-05-07T05:59:11;99856.77;;;11.47;39.18
60267;BME280;46125;61.360;-149.532;2023-05-07T06:01:39;99856.10;;;11.44;39.12
60267;BME280;46125;61.360;-149.532;2023-05-07T06:04:08;99855.10;;;11.36;39.04
60267;BME280;46125;61.360;-149.532;2023-05-07T06:06:36;99858.87;;;11.34;39.81
60267;BME280;46125;61.360;-149.532;2023-05-07T06:09:05;99862.38;;;11.69;39.00
60267;BME280;46125;61.360;-149.532;2023-05-07T06:11:33;99872.78;;;9.38;43.43
60267;BME280;46125;61.360;-149.532;2023-05-07T06:14:02;99875.23;;;7.19;50.10
60267;BME280;46125;61.360;-149.532;2023-05-07T06:16:30;99878.65;;;6.72;50.64
60267;BME280;46125;61.360;-149.532;2023-05-07T06:18:59;99878.64;;;6.64;52.25
60267;BME280;46125;61.360;-149.532;2023-05-07T06:21:27;99877.62;;;8.23;48.67
60267;BME280;46125;61.360;-149.532;2023-05-07T06:23:56;99879.37;;;7.72;49.93
60267;BME280;46125;61.360;-149.532;2023-05-07T06:26:24;99880.24;;;8.87;47.30
60267;BME280;46125;61.360;-149.532;2023-05-07T06:28:53;99881.08;;;9.63;46.95
60267;BME280;46125;61.360;-149.532;2023-05-07T06:31:21;99878.81;;;9.23;47.92
60267;BME280;46125;61.360;-149.532;2023-05-07T06:33:50;99877.15;;;8.83;49.18
60267;BME280;46125;61.360;-149.532;2023-05-07T06:36:18;99878.16;;;8.95;47.38
60267;BME280;46125;61.360;-149.532;2023-05-07T06:38:47;99872.46;;;9.26;46.97
60267;BME280;46125;61.360;-149.532;2023-05-07T06:41:15;99874.42;;;7.99;49.02
60267;BME280;46125;61.360;-149.532;2023-05-07T06:43:44;99872.07;;;8.51;47.70
60267;BME280;46125;61.360;-149.532;2023-05-07T06:46:12;99872.05;;;8.48;47.72
60267;BME280;46125;61.360;-149.532;2023-05-07T06:48:41;99872.46;;;8.56;47.91
60267;BME280;46125;61.360;-149.532;2023-05-07T06:51:20;99871.76;;;9.35;46.14
60267;BME280;46125;61.360;-149.532;2023-05-07T06:53:48;99873.38;;;9.49;45.33
60267;BME280;46125;61.360;-149.532;2023-05-07T06:56:17;99877.54;;;9.62;44.94
60267;BME280;46125;61.360;-149.532;2023-05-07T06:58:46;99878.22;;;9.52;44.47
60267;BME280;46125;61.360;-149.532;2023-05-07T07:01:14;99882.51;;;9.73;44.57
60267;BME280;46125;61.360;-149.532;2023-05-07T07:03:43;99882.64;;;9.55;44.41
60267;BME280;46125;61.360;-149.532;2023-05-07T07:06:11;99882.80;;;9.47;44.64
60267;BME280;46125;61.360;-149.532;2023-05-07T07:08:40;99880.92;;;9.51;45.60
60267;BME280;46125;61.360;-149.532;2023-05-07T07:11:09;99883.10;;;9.36;45.78
60267;BME280;46125;61.360;-149.532;2023-05-07T07:13:38;99880.46;;;9.30;45.97
60267;BME280;46125;61.360;-149.532;2023-05-07T07:16:06;99880.70;;;9.60;45.72
60267;BME280;46125;61.360;-149.532;2023-05-07T07:18:35;99882.93;;;8.52;48.12
60267;BME280;46125;61.360;-149.532;2023-05-07T07:21:03;99885.11;;;7.40;51.10
60267;BME280;46125;61.360;-149.532;2023-05-07T07:23:32;99884.11;;;7.49;50.73
60267;BME280;46125;61.360;-149.532;2023-05-07T07:26:01;99885.29;;;7.51;50.31
60267;BME280;46125;61.360;-149.532;2023-05-07T07:28:29;99884.14;;;8.22;48.75
60267;BME280;46125;61.360;-149.532;2023-05-07T07:30:57;99884.84;;;8.11;48.87
60267;BME280;46125;61.360;-149.532;2023-05-07T07:33:26;99883.50;;;8.31;48.07
60267;BME280;46125;61.360;-149.532;2023-05-07T07:35:56;99885.55;;;8.35;47.50
60267;BME280;46125;61.360;-149.532;2023-05-07T07:38:25;99884.55;;;8.44;47.29
60267;BME280;46125;61.360;-149.532;2023-05-07T07:40:53;99885.91;;;8.78;46.90
60267;BME280;46125;61.360;-149.532;2023-05-07T07:43:22;99888.92;;;8.63;46.64
60267;BME280;46125;61.360;-149.532;2023-05-07T07:45:50;99888.37;;;9.02;46.40
60267;BME280;46125;61.360;-149.532;2023-05-07T07:48:19;99888.36;;;8.67;46.74
60267;BME280;46125;61.360;-149.532;2023-05-07T07:50:49;99888.07;;;8.62;46.76
60267;BME280;46125;61.360;-149.532;2023-05-07T07:53:18;99884.60;;;8.47;46.97
60267;BME280;46125;61.360;-149.532;2023-05-07T07:55:46;99887.00;;;8.72;46.89
60267;BME280;46125;61.360;-149.532;2023-05-07T07:58:15;99886.96;;;8.63;46.82
60267;BME280;46125;61.360;-149.532;2023-05-07T08:00:43;99890.20;;;8.34;47.27
60267;BME280;46125;61.360;-149.532;2023-05-07T08:03:12;99888.65;;;8.45;47.69
60267;BME280;46125;61.360;-149.532;2023-05-07T08:05:40;99891.33;;;8.42;47.66
60267;BME280;46125;61.360;-149.532;2023-05-07T08:08:09;99886.98;;;8.16;47.63
60267;BME280;46125;61.360;-149.532;2023-05-07T08:10:37;99884.97;;;7.68;48.34
60267;BME280;46125;61.360;-149.532;2023-05-07T08:13:06;99885.69;;;7.46;48.65
60267;BME280;46125;61.360;-149.532;2023-05-07T08:15:34;99881.14;;;7.35;49.29
60267;BME280;46125;61.360;-149.532;2023-05-07T08:18:03;99882.58;;;7.18;48.93
60267;BME280;46125;61.360;-149.532;2023-05-07T08:20:32;99882.51;;;7.42;48.60
60267;BME280;46125;61.360;-149.532;2023-05-07T08:23:00;99878.95;;;7.61;48.28
60267;BME280;46125;61.360;-149.532;2023-05-07T08:25:29;99875.70;;;7.60;48.25
60267;BME280;46125;61.360;-149.532;2023-05-07T08:27:58;99878.61;;;7.51;48.76
60267;BME280;46125;61.360;-149.532;2023-05-07T08:30:26;99878.28;;;6.94;49.32
60267;BME280;46125;61.360;-149.532;2023-05-07T08:32:54;99877.39;;;7.16;49.46
60267;BME280;46125;61.360;-149.532;2023-05-07T08:35:23;99874.81;;;7.25;48.32
60267;BME280;46125;61.360;-149.532;2023-05-07T08:37:51;99872.31;;;7.21;48.37
60267;BME280;46125;61.360;-149.532;2023-05-07T08:40:21;99873.18;;;7.24;48.07
60267;BME280;46125;61.360;-149.532;2023-05-07T08:42:53;99872.33;;;7.57;48.29
60267;BME280;46125;61.360;-149.532;2023-05-07T08:45:21;99870.31;;;7.14;48.60
60267;BME280;46125;61.360;-149.532;2023-05-07T08:47:55;99868.53;;;7.01;49.31
60267;BME280;46125;61.360;-149.532;2023-05-07T08:50:27;99870.23;;;6.94;49.14
60267;BME280;46125;61.360;-149.532;2023-05-07T08:52:56;99868.69;;;7.05;48.95
60267;BME280;46125;61.360;-149.532;2023-05-07T08:55:25;99866.36;;;7.12;48.90
60267;BME280;46125;61.360;-149.532;2023-05-07T08:57:53;99865.28;;;7.05;48.90
60267;BME280;46125;61.360;-149.532;2023-05-07T09:00:22;99865.73;;;7.67;48.77
60267;BME280;46125;61.360;-149.532;2023-05-07T09:02:51;99865.00;;;7.32;48.46
60267;BME280;46125;61.360;-149.532;2023-05-07T09:05:20;99863.30;;;7.45;48.21
60267;BME280;46125;61.360;-149.532;2023-05-07T09:07:48;99861.98;;;7.31;48.47
60267;BME280;46125;61.360;-149.532;2023-05-07T09:10:17;99860.37;;;7.38;48.36
60267;BME280;46125;61.360;-149.532;2023-05-07T09:12:47;99859.56;;;7.23;48.81
60267;BME280;46125;61.360;-149.532;2023-05-07T09:15:16;99855.58;;;7.24;48.58
60267;BME280;46125;61.360;-149.532;2023-05-07T09:17:44;99856.08;;;7.32;48.92
60267;BME280;46125;61.360;-149.532;2023-05-07T09:20:13;99856.13;;;7.08;48.74
60267;BME280;46125;61.360;-149.532;2023-05-07T09:22:41;99855.22;;;6.58;49.67
60267;BME280;46125;61.360;-149.532;2023-05-07T09:25:10;99856.22;;;6.89;49.02
60267;BME280;46125;61.360;-149.532;2023-05-07T09:27:38;99854.01;;;6.95;48.87
60267;BME280;46125;61.360;-149.532;2023-05-07T09:30:09;99853.65;;;7.07;48.76
60267;BME280;46125;61.360;-149.532;2023-05-07T09:32:38;99851.14;;;7.05;48.65
60267;BME280;46125;61.360;-149.532;2023-05-07T09:35:15;99849.87;;;7.09;48.47
60267;BME280;46125;61.360;-149.532;2023-05-07T09:37:44;99850.89;;;7.05;48.29
60267;BME280;46125;61.360;-149.532;2023-05-07T09:40:22;99851.05;;;7.48;47.85
60267;BME280;46125;61.360;-149.532;2023-05-07T09:42:51;99849.78;;;7.56;47.15
60267;BME280;46125;61.360;-149.532;2023-05-07T09:45:22;99845.97;;;7.36;47.38
60267;BME280;46125;61.360;-149.532;2023-05-07T09:47:55;99848.46;;;7.27;47.42
60267;BME280;46125;61.360;-149.532;2023-05-07T09:50:27;99847.35;;;7.17;47.19
60267;BME280;46125;61.360;-149.532;2023-05-07T09:52:56;99841.93;;;6.93;47.84
60267;BME280;46125;61.360;-149.532;2023-05-07T09:55:25;99839.49;;;6.93;48.17
60267;BME280;46125;61.360;-149.532;2023-05-07T09:57:54;99845.47;;;6.26;49.41
60267;BME280;46125;61.360;-149.532;2023-05-07T10:00:23;99844.34;;;6.31;49.62
60267;BME280;46125;61.360;-149.532;2023-05-07T10:02:53;99841.30;;;6.64;48.62
60267;BME280;46125;61.360;-149.532;2023-05-07T10:05:24;99838.42;;;6.79;48.32
60267;BME280;46125;61.360;-149.532;2023-05-07T10:07:54;99838.43;;;6.86;48.22
60267;BME280;46125;61.360;-149.532;2023-05-07T10:10:23;99834.67;;;6.87;48.10
60267;BME280;46125;61.360;-149.532;2023-05-07T10:12:52;99835.10;;;6.92;47.88
60267;BME280;46125;61.360;-149.532;2023-05-07T10:15:22;99833.44;;;6.95;47.64
60267;BME280;46125;61.360;-149.532;2023-05-07T10:17:50;99834.75;;;6.58;47.76
60267;BME280;46125;61.360;-149.532;2023-05-07T10:20:20;99833.80;;;6.79;48.00
60267;BME280;46125;61.360;-149.532;2023-05-07T10:22:49;99833.04;;;6.71;48.23
60267;BME280;46125;61.360;-149.532;2023-05-07T10:25:22;99829.21;;;6.63;48.69
60267;BME280;46125;61.360;-149.532;2023-05-07T10:27:53;99830.01;;;6.67;48.50
60267;BME280;46125;61.360;-149.532;2023-05-07T10:30:31;99829.65;;;5.67;50.12
60267;BME280;46125;61.360;-149.532;2023-05-07T10:33:05;99824.79;;;6.19;49.33
60267;BME280;46125;61.360;-149.532;2023-05-07T10:35:40;99822.14;;;6.90;48.92
60267;BME280;46125;61.360;-149.532;2023-05-07T10:38:09;99821.06;;;6.07;49.63
60267;BME280;46125;61.360;-149.532;2023-05-07T10:40:38;99817.92;;;6.52;48.63
60267;BME280;46125;61.360;-149.532;2023-05-07T10:43:06;99818.55;;;6.51;48.29
60267;BME280;46125;61.360;-149.532;2023-05-07T10:45:35;99816.10;;;6.56;48.08
60267;BME280;46125;61.360;-149.532;2023-05-07T10:48:12;99813.30;;;6.77;48.28
60267;BME280;46125;61.360;-149.532;2023-05-07T10:50:41;99813.69;;;6.58;48.38
60267;BME280;46125;61.360;-149.532;2023-05-07T10:53:26;99811.57;;;6.60;48.04
60267;BME280;46125;61.360;-149.532;2023-05-07T10:56:26;99814.47;;;6.55;48.24
60267;BME280;46125;61.360;-149.532;2023-05-07T10:58:55;99810.81;;;6.22;49.06
60267;BME280;46125;61.360;-149.532;2023-05-07T11:01:58;99813.58;;;5.53;50.91
60267;BME280;46125;61.360;-149.532;2023-05-07T11:04:26;99810.86;;;5.97;50.06
60267;BME280;46125;61.360;-149.532;2023-05-07T11:07:31;99805.99;;;6.16;49.43
60267;BME280;46125;61.360;-149.532;2023-05-07T11:10:03;99808.31;;;6.04;49.85
60267;BME280;46125;61.360;-149.532;2023-05-07T11:13:04;99806.02;;;6.21;49.31
60267;BME280;46125;61.360;-149.532;2023-05-07T11:15:43;99806.25;;;5.93;49.87
60267;BME280;46125;61.360;-149.532;2023-05-07T11:18:13;99801.33;;;6.09;49.43
60267;BME280;46125;61.360;-149.532;2023-05-07T11:20:59;99795.47;;;6.48;49.14
60267;BME280;46125;61.360;-149.532;2023-05-07T11:24:00;99790.24;;;6.28;49.18
60267;BME280;46125;61.360;-149.532;2023-05-07T11:26:30;99789.02;;;6.54;48.88
60267;BME280;46125;61.360;-149.532;2023-05-07T11:28:59;99790.96;;;6.62;48.54
60267;BME280;46125;61.360;-149.532;2023-05-07T11:31:28;99792.30;;;6.26;49.44
60267;BME280;46125;61.360;-149.532;2023-05-07T11:33:57;99786.97;;;6.15;49.10
60267;BME280;46125;61.360;-149.532;2023-05-07T11:36:30;99786.35;;;6.61;49.28
60267;BME280;46125;61.360;-149.532;2023-05-07T11:38:59;99783.31;;;6.46;48.93
60267;BME280;46125;61.360;-149.532;2023-05-07T11:41:34;99785.67;;;5.82;50.46
60267;BME280;46125;61.360;-149.532;2023-05-07T11:44:03;99784.54;;;6.18;49.59
60267;BME280;46125;61.360;-149.532;2023-05-07T11:46:33;99780.96;;;6.28;49.06
60267;BME280;46125;61.360;-149.532;2023-05-07T11:49:01;99775.12;;;6.34;48.84
60267;BME280;46125;61.360;-149.532;2023-05-07T11:51:31;99773.70;;;6.34;48.97
60267;BME280;46125;61.360;-149.532;2023-05-07T11:53:59;99776.92;;;6.02;49.52
60267;BME280;46125;61.360;-149.532;2023-05-07T11:56:28;99771.35;;;6.27;49.08
60267;BME280;46125;61.360;-149.532;2023-05-07T11:58:56;99770.24;;;6.36;48.87
60267;BME280;46125;61.360;-149.532;2023-05-07T12:01:25;99773.92;;;6.47;48.92
60267;BME280;46125;61.360;-149.532;2023-05-07T12:03:53;99777.21;;;6.28;48.81
60267;BME280;46125;61.360;-149.532;2023-05-07T12:06:22;99780.37;;;5.27;51.25
60267;BME280;46125;61.360;-149.532;2023-05-07T12:08:51;99783.28;;;5.55;50.82
60267;BME280;46125;61.360;-149.532;2023-05-07T12:11:24;99785.23;;;5.87;49.91
60267;BME280;46125;61.360;-149.532;2023-05-07T12:13:54;99783.93;;;6.09;49.28
60267;BME280;46125;61.360;-149.532;2023-05-07T12:16:23;99784.37;;;6.12;48.89
60267;BME280;46125;61.360;-149.532;2023-05-07T12:18:51;99786.63;;;5.47;50.43
60267;BME280;46125;61.360;-149.532;2023-05-07T12:21:19;99781.40;;;5.88;49.70
60267;BME280;46125;61.360;-149.532;2023-05-07T12:23:48;99782.65;;;5.58;50.88
60267;BME280;46125;61.360;-149.532;2023-05-07T12:26:17;99781.23;;;5.48;50.30
60267;BME280;46125;61.360;-149.532;2023-05-07T12:28:47;99783.97;;;4.22;52.92
60267;BME280;46125;61.360;-149.532;2023-05-07T12:31:16;99783.12;;;5.30;51.44
60267;BME280;46125;61.360;-149.532;2023-05-07T12:33:45;99779.20;;;5.70;50.21
60267;BME280;46125;61.360;-149.532;2023-05-07T12:36:14;99780.89;;;5.37;52.20
60267;BME280;46125;61.360;-149.532;2023-05-07T12:38:42;99780.62;;;4.37;54.28
60267;BME280;46125;61.360;-149.532;2023-05-07T12:41:11;99773.67;;;5.59;51.60
60267;BME280;46125;61.360;-149.532;2023-05-07T12:43:42;99774.08;;;5.48;50.90
60267;BME280;46125;61.360;-149.532;2023-05-07T12:46:11;99776.22;;;5.90;50.48
60267;BME280;46125;61.360;-149.532;2023-05-07T12:48:44;99775.45;;;5.74;49.88
60267;BME280;46125;61.360;-149.532;2023-05-07T12:51:13;99779.30;;;4.79;52.07